sensor_id;sensor_type;location;lat;lon;timestamp;temperature;humidity
18998;DHT22;9632;51.018;4.284;2023-07-31T00:00:27;18.80;99.90
18998;DHT22;9632;51.018;4.284;2023-07-31T00:02:53;18.80;99.90
18998;DHT22;9632;51.018;4.284;2023-07-31T00:05:19;18.90;99.90
18998;DHT22;9632;51.018;4.284;2023-07-31T00:07:45;18.80;99.90
18998;DHT22;9632;51.018;4.284;2023-07-31T00:10:10;18.80;99.90
18998;DHT22;9632;51.018;4.284;2023-07-31T00:12:37;18.80;99.90
18998;DHT22;9632;51.018;4.284;2023-07-31T00:15:03;18.80;99.90
18998;DHT22;9632;51.018;4.284;2023-07-31T00:17:29;18.80;99.90
18998;DHT22;9632;51.018;4.284;2023-07-31T00:19:54;18.80;99.90
18998;DHT22;9632;51.018;4.284;2023-07-31T00:22:20;18.80;99.90
18998;DHT22;9632;51.018;4.284;2023-07-31T00:24:46;18.80;99.90
18998;DHT22;9632;51.018;4.284;2023-07-31T00:27:11;18.80;99.90
18998;DHT22;9632;51.018;4.284;2023-07-31T00:29:37;18.80;99.90
18998;DHT22;9632;51.018;4.284;2023-07-31T00:32:03;18.70;99.90
18998;DHT22;9632;51.018;4.284;2023-07-31T00:34:29;18.80;99.90
18998;DHT22;9632;51.018;4.284;2023-07-31T00:36:55;18.80;99.90
18998;DHT22;9632;51.018;4.284;2023-07-31T00:39:21;18.80;99.90
18998;DHT22;9632;51.018;4.284;2023-07-31T00:41:46;18.70;99.90
18998;DHT22;9632;51.018;4.284;2023-07-31T00:44:12;18.70;99.90
18998;DHT22;9632;51.018;4.284;2023-07-31T00:46:38;18.70;99.90
18998;DHT22;9632;51.018;4.284;2023-07-31T00:49:04;18.80;99.90
18998;DHT22;9632;51.018;4.284;2023-07-31T00:51:31;18.80;99.90
18998;DHT22;9632;51.018;4.284;2023-07-31T00:53:56;18.80;99.90
18998;DHT22;9632;51.018;4.284;2023-07-31T00:56:24;18.80;99.90
18998;DHT22;9632;51.018;4.284;2023-07-31T00:58:50;18.80;99.90
18998;DHT22;9632;51.018;4.284;2023-07-31T01:01:16;18.80;99.90
18998;DHT22;9632;51.018;4.284;2023-07-31T01:03:42;18.80;99.90
18998;DHT22;9632;51.018;4.284;2023-07-31T01:06:13;18.80;99.90
18998;DHT22;9632;51.018;4.284;2023-07-31T01:09:04;18.80;99.90
18998;DHT22;9632;51.018;4.284;2023-07-31T01:11:37;18.80;99.90
18998;DHT22;9632;51.018;4.284;2023-07-31T01:14:04;18.80;99.90
18998;DHT22;9632;51.018;4.284;2023-07-31T01:16:30;18.90;99.90
18998;DHT22;9632;51.018;4.284;2023-07-31T01:18:55;18.80;99.90
18998;DHT22;9632;51.018;4.284;2023-07-31T01:21:47;18.80;99.90
18998;DHT22;9632;51.018;4.284;2023-07-31T01:27:17;18.90;99.90
18998;DHT22;9632;51.018;4.284;2023-07-31T01:29:51;18.90;99.90
18998;DHT22;9632;51.018;4.284;2023-07-31T01:32:19;18.90;99.90
18998;DHT22;9632;51.018;4.284;2023-07-31T01:34:46;18.90;99.90
18998;DHT22;9632;51.018;4.284;2023-07-31T01:37:12;18.90;99.90
18998;DHT22;9632;51.018;4.284;2023-07-31T01:39:38;18.90;99.90
18998;DHT22;9632;51.018;4.284;2023-07-31T01:42:03;19.00;99.90
18998;DHT22;9632;51.018;4.284;2023-07-31T01:44:29;19.00;99.90
18998;DHT22;9632;51.018;4.284;2023-07-31T01:46:55;19.00;99.90
18998;DHT22;9632;51.018;4.284;2023-07-31T01:49:20;19.00;99.90
18998;DHT22;9632;51.018;4.284;2023-07-31T01:51:46;19.00;99.90
18998;DHT22;9632;51.018;4.284;2023-07-31T01:54:12;19.00;99.90
18998;DHT22;9632;51.018;4.284;2023-07-31T01:56:37;19.00;99.90
18998;DHT22;9632;51.018;4.284;2023-07-31T01:59:03;19.00;99.90
18998;DHT22;9632;51.018;4.284;2023-07-31T02:01:29;19.00;99.90
18998;DHT22;9632;51.018;4.284;2023-07-31T02:03:54;19.00;99.90
18998;DHT22;9632;51.018;4.284;2023-07-31T02:06:20;19.00;99.90
18998;DHT22;9632;51.018;4.284;2023-07-31T02:08:46;19.00;99.90
18998;DHT22;9632;51.018;4.284;2023-07-31T02:11:11;19.00;99.90
18998;DHT22;9632;51.018;4.284;2023-07-31T02:13:37;19.10;99.90
18998;DHT22;9632;51.018;4.284;2023-07-31T02:16:03;19.10;99.90
18998;DHT22;9632;51.018;4.284;2023-07-31T02:18:29;19.10;99.90
18998;DHT22;9632;51.018;4.284;2023-07-31T02:20:54;19.10;99.90
18998;DHT22;9632;51.018;4.284;2023-07-31T02:23:20;19.20;99.90
18998;DHT22;9632;51.018;4.284;2023-07-31T02:25:46;19.10;99.90
18998;DHT22;9632;51.018;4.284;2023-07-31T02:28:12;19.10;99.90
18998;DHT22;9632;51.018;4.284;2023-07-31T02:30:38;19.10;99.90
18998;DHT22;9632;51.018;4.284;2023-07-31T02:33:04;19.10;99.90
18998;DHT22;9632;51.018;4.284;2023-07-31T02:35:30;19.10;99.90
18998;DHT22;9632;51.018;4.284;2023-07-31T02:37:56;19.10;99.90
18998;DHT22;9632;51.018;4.284;2023-07-31T02:40:22;19.10;99.90
18998;DHT22;9632;51.018;4.284;2023-07-31T02:42:47;19.10;99.90
18998;DHT22;9632;51.018;4.284;2023-07-31T02:45:13;19.20;99.90
18998;DHT22;9632;51.018;4.284;2023-07-31T02:47:39;19.20;99.90
18998;DHT22;9632;51.018;4.284;2023-07-31T02:50:05;19.20;99.90
18998;DHT22;9632;51.018;4.284;2023-07-31T02:52:31;19.20;99.90
18998;DHT22;9632;51.018;4.284;2023-07-31T02:54:57;19.20;99.90
18998;DHT22;9632;51.018;4.284;2023-07-31T02:57:23;19.10;99.90
18998;DHT22;9632;51.018;4.284;2023-07-31T02:59:49;19.20;99.90
18998;DHT22;9632;51.018;4.284;2023-07-31T03:02:14;19.20;99.90
18998;DHT22;9632;51.018;4.284;2023-07-31T03:04:40;19.20;99.90
18998;DHT22;9632;51.018;4.284;2023-07-31T03:07:06;19.20;99.90
18998;DHT22;9632;51.018;4.284;2023-07-31T03:09:31;19.20;99.90
18998;DHT22;9632;51.018;4.284;2023-07-31T03:11:57;19.30;99.90
18998;DHT22;9632;51.018;4.284;2023-07-31T03:14:23;19.20;99.90
18998;DHT22;9632;51.018;4.284;2023-07-31T03:16:49;19.20;99.90
18998;DHT22;9632;51.018;4.284;2023-07-31T03:19:14;19.20;99.90
18998;DHT22;9632;51.018;4.284;2023-07-31T03:21:40;19.30;99.90
18998;DHT22;9632;51.018;4.284;2023-07-31T03:24:06;19.30;99.90
18998;DHT22;9632;51.018;4.284;2023-07-31T03:26:32;19.30;99.90
18998;DHT22;9632;51.018;4.284;2023-07-31T03:28:58;19.20;99.90
18998;DHT22;9632;51.018;4.284;2023-07-31T03:31:24;19.20;99.90
18998;DHT22;9632;51.018;4.284;2023-07-31T03:33:49;19.20;99.90
18998;DHT22;9632;51.018;4.284;2023-07-31T03:36:15;19.20;99.90
18998;DHT22;9632;51.018;4.284;2023-07-31T03:38:40;19.20;99.90
18998;DHT22;9632;51.018;4.284;2023-07-31T03:41:06;19.20;99.90
18998;DHT22;9632;51.018;4.284;2023-07-31T03:43:32;19.10;99.90
18998;DHT22;9632;51.018;4.284;2023-07-31T03:46:01;19.20;99.90
18998;DHT22;9632;51.018;4.284;2023-07-31T03:48:27;19.20;99.90
18998;DHT22;9632;51.018;4.284;2023-07-31T03:50:53;19.20;99.90
18998;DHT22;9632;51.018;4.284;2023-07-31T03:53:19;19.10;99.90
18998;DHT22;9632;51.018;4.284;2023-07-31T03:55:45;19.10;99.90
18998;DHT22;9632;51.018;4.284;2023-07-31T03:58:10;19.10;99.90
18998;DHT22;9632;51.018;4.284;2023-07-31T04:00:36;19.10;99.90
18998;DHT22;9632;51.018;4.284;2023-07-31T04:03:02;19.00;99.90
18998;DHT22;9632;51.018;4.284;2023-07-31T04:05:29;19.00;99.90
18998;DHT22;9632;51.018;4.284;2023-07-31T04:07:55;19.00;99.90
18998;DHT22;9632;51.018;4.284;2023-07-31T04:10:20;19.00;99.90
18998;DHT22;9632;51.018;4.284;2023-07-31T04:12:46;19.00;99.90
18998;DHT22;9632;51.018;4.284;2023-07-31T04:15:12;19.00;99.90
18998;DHT22;9632;51.018;4.284;2023-07-31T04:17:37;19.00;99.90
18998;DHT22;9632;51.018;4.284;2023-07-31T04:20:03;19.00;99.90
18998;DHT22;9632;51.018;4.284;2023-07-31T04:22:29;19.00;99.90
18998;DHT22;9632;51.018;4.284;2023-07-31T04:24:55;19.00;99.90
18998;DHT22;9632;51.018;4.284;2023-07-31T04:27:20;19.00;99.90
18998;DHT22;9632;51.018;4.284;2023-07-31T04:29:46;19.00;99.90
18998;DHT22;9632;51.018;4.284;2023-07-31T04:32:13;19.00;99.90
18998;DHT22;9632;51.018;4.284;2023-07-31T04:34:38;19.00;99.90
18998;DHT22;9632;51.018;4.284;2023-07-31T04:37:04;19.00;99.90
18998;DHT22;9632;51.018;4.284;2023-07-31T04:39:30;19.00;99.90
18998;DHT22;9632;51.018;4.284;2023-07-31T04:41:55;19.00;99.90
18998;DHT22;9632;51.018;4.284;2023-07-31T04:44:21;19.00;99.90
18998;DHT22;9632;51.018;4.284;2023-07-31T04:46:47;19.00;99.90
18998;DHT22;9632;51.018;4.284;2023-07-31T04:49:12;19.00;99.90
18998;DHT22;9632;51.018;4.284;2023-07-31T04:51:38;19.00;99.90
18998;DHT22;9632;51.018;4.284;2023-07-31T04:54:03;19.00;99.90
18998;DHT22;9632;51.018;4.284;2023-07-31T04:56:29;19.00;99.90
18998;DHT22;9632;51.018;4.284;2023-07-31T04:58:55;18.90;99.90
18998;DHT22;9632;51.018;4.284;2023-07-31T05:01:20;18.90;99.90
18998;DHT22;9632;51.018;4.284;2023-07-31T05:03:46;18.90;99.90
18998;DHT22;9632;51.018;4.284;2023-07-31T05:06:11;18.80;99.90
18998;DHT22;9632;51.018;4.284;2023-07-31T05:08:38;18.80;99.90
18998;DHT22;9632;51.018;4.284;2023-07-31T05:11:04;18.80;99.90
18998;DHT22;9632;51.018;4.284;2023-07-31T05:13:30;18.80;99.90
18998;DHT22;9632;51.018;4.284;2023-07-31T05:15:56;18.80;99.90
18998;DHT22;9632;51.018;4.284;2023-07-31T05:18:21;18.80;99.90
18998;DHT22;9632;51.018;4.284;2023-07-31T05:20:47;18.80;99.90
18998;DHT22;9632;51.018;4.284;2023-07-31T05:23:12;18.80;99.90
18998;DHT22;9632;51.018;4.284;2023-07-31T05:25:38;18.70;99.90
18998;DHT22;9632;51.018;4.284;2023-07-31T05:28:04;18.70;99.90
18998;DHT22;9632;51.018;4.284;2023-07-31T05:30:30;18.80;99.90
18998;DHT22;9632;51.018;4.284;2023-07-31T05:32:56;18.70;99.90
18998;DHT22;9632;51.018;4.284;2023-07-31T05:35:22;18.70;99.90
18998;DHT22;9632;51.018;4.284;2023-07-31T05:37:47;18.70;99.90
18998;DHT22;9632;51.018;4.284;2023-07-31T05:40:13;18.70;99.90
18998;DHT22;9632;51.018;4.284;2023-07-31T05:42:39;18.70;99.90
18998;DHT22;9632;51.018;4.284;2023-07-31T05:45:06;18.70;99.90
18998;DHT22;9632;51.018;4.284;2023-07-31T05:47:32;18.70;99.90
18998;DHT22;9632;51.018;4.284;2023-07-31T05:49:58;18.70;99.90
18998;DHT22;9632;51.018;4.284;2023-07-31T05:52:23;18.70;99.90
18998;DHT22;9632;51.018;4.284;2023-07-31T05:54:49;18.70;99.90
18998;DHT22;9632;51.018;4.284;2023-07-31T05:57:15;18.70;99.90
18998;DHT22;9632;51.018;4.284;2023-07-31T05:59:41;18.80;99.90
18998;DHT22;9632;51.018;4.284;2023-07-31T06:02:07;18.80;99.90
18998;DHT22;9632;51.018;4.284;2023-07-31T06:04:32;18.80;99.90
18998;DHT22;9632;51.018;4.284;2023-07-31T06:07:00;18.80;99.90
18998;DHT22;9632;51.018;4.284;2023-07-31T06:09:25;18.70;99.90
18998;DHT22;9632;51.018;4.284;2023-07-31T06:11:51;18.70;99.90
18998;DHT22;9632;51.018;4.284;2023-07-31T06:14:17;18.70;99.90
18998;DHT22;9632;51.018;4.284;2023-07-31T06:16:43;18.70;99.90
18998;DHT22;9632;51.018;4.284;2023-07-31T06:19:09;18.80;99.90
18998;DHT22;9632;51.018;4.284;2023-07-31T06:21:35;18.80;99.90
18998;DHT22;9632;51.018;4.284;2023-07-31T06:24:03;18.80;99.90
18998;DHT22;9632;51.018;4.284;2023-07-31T06:26:29;18.80;99.90
18998;DHT22;9632;51.018;4.284;2023-07-31T06:28:54;18.70;99.90
18998;DHT22;9632;51.018;4.284;2023-07-31T06:31:20;18.70;99.90
18998;DHT22;9632;51.018;4.284;2023-07-31T06:33:51;18.80;99.90
18998;DHT22;9632;51.018;4.284;2023-07-31T06:36:17;18.70;99.90
18998;DHT22;9632;51.018;4.284;2023-07-31T06:38:43;18.70;99.90
18998;DHT22;9632;51.018;4.284;2023-07-31T06:41:09;18.70;99.90
18998;DHT22;9632;51.018;4.284;2023-07-31T06:43:36;18.80;99.90
18998;DHT22;9632;51.018;4.284;2023-07-31T06:46:05;18.80;99.90
18998;DHT22;9632;51.018;4.284;2023-07-31T06:48:32;18.80;99.90
18998;DHT22;9632;51.018;4.284;2023-07-31T06:50:58;18.70;99.90
18998;DHT22;9632;51.018;4.284;2023-07-31T06:53:24;18.80;99.90
18998;DHT22;9632;51.018;4.284;2023-07-31T06:55:49;18.80;99.90
18998;DHT22;9632;51.018;4.284;2023-07-31T06:58:17;18.90;99.90
18998;DHT22;9632;51.018;4.284;2023-07-31T07:00:43;18.80;99.90
18998;DHT22;9632;51.018;4.284;2023-07-31T07:03:08;18.90;99.90
18998;DHT22;9632;51.018;4.284;2023-07-31T07:05:34;19.00;99.90
18998;DHT22;9632;51.018;4.284;2023-07-31T07:08:00;19.00;99.90
18998;DHT22;9632;51.018;4.284;2023-07-31T07:10:25;19.10;99.90
18998;DHT22;9632;51.018;4.284;2023-07-31T07:12:51;19.10;99.90
18998;DHT22;9632;51.018;4.284;2023-07-31T07:15:17;19.10;99.90
18998;DHT22;9632;51.018;4.284;2023-07-31T07:17:42;19.20;99.90
18998;DHT22;9632;51.018;4.284;2023-07-31T07:20:08;19.20;99.90
18998;DHT22;9632;51.018;4.284;2023-07-31T07:22:34;19.20;99.90
18998;DHT22;9632;51.018;4.284;2023-07-31T07:25:00;19.20;99.90
18998;DHT22;9632;51.018;4.284;2023-07-31T07:27:25;19.30;99.90
18998;DHT22;9632;51.018;4.284;2023-07-31T07:29:51;19.30;99.90
18998;DHT22;9632;51.018;4.284;2023-07-31T07:32:18;19.40;99.90
18998;DHT22;9632;51.018;4.284;2023-07-31T07:34:44;19.40;99.90
18998;DHT22;9632;51.018;4.284;2023-07-31T07:37:09;19.40;99.90
18998;DHT22;9632;51.018;4.284;2023-07-31T07:39:35;19.30;99.90
18998;DHT22;9632;51.018;4.284;2023-07-31T07:42:00;19.20;99.90
18998;DHT22;9632;51.018;4.284;2023-07-31T07:44:26;19.30;99.90
18998;DHT22;9632;51.018;4.284;2023-07-31T07:46:53;19.30;99.90
18998;DHT22;9632;51.018;4.284;2023-07-31T07:49:19;19.30;99.90
18998;DHT22;9632;51.018;4.284;2023-07-31T07:51:44;19.30;99.90
18998;DHT22;9632;51.018;4.284;2023-07-31T07:54:10;19.40;99.90
18998;DHT22;9632;51.018;4.284;2023-07-31T07:56:36;19.30;99.90
18998;DHT22;9632;51.018;4.284;2023-07-31T07:59:02;19.30;99.90
18998;DHT22;9632;51.018;4.284;2023-07-31T08:01:27;19.30;99.90
18998;DHT22;9632;51.018;4.284;2023-07-31T08:03:53;19.40;99.90
18998;DHT22;9632;51.018;4.284;2023-07-31T08:06:19;19.50;99.90
18998;DHT22;9632;51.018;4.284;2023-07-31T08:08:45;19.50;99.90
18998;DHT22;9632;51.018;4.284;2023-07-31T08:11:10;19.60;99.90
18998;DHT22;9632;51.018;4.284;2023-07-31T08:13:36;19.60;99.90
18998;DHT22;9632;51.018;4.284;2023-07-31T08:16:03;19.60;99.90
18998;DHT22;9632;51.018;4.284;2023-07-31T08:18:31;19.60;99.90
18998;DHT22;9632;51.018;4.284;2023-07-31T08:20:57;19.70;99.90
18998;DHT22;9632;51.018;4.284;2023-07-31T08:23:23;19.70;99.90
18998;DHT22;9632;51.018;4.284;2023-07-31T08:25:48;19.70;99.90
18998;DHT22;9632;51.018;4.284;2023-07-31T08:28:16;19.80;99.90
18998;DHT22;9632;51.018;4.284;2023-07-31T08:30:41;19.70;99.90
18998;DHT22;9632;51.018;4.284;2023-07-31T08:33:07;19.80;99.90
18998;DHT22;9632;51.018;4.284;2023-07-31T08:35:33;19.80;99.90
18998;DHT22;9632;51.018;4.284;2023-07-31T08:37:59;19.80;99.90
18998;DHT22;9632;51.018;4.284;2023-07-31T08:40:25;19.80;99.90
18998;DHT22;9632;51.018;4.284;2023-07-31T08:42:54;19.80;99.90
18998;DHT22;9632;51.018;4.284;2023-07-31T08:45:22;19.80;99.90
18998;DHT22;9632;51.018;4.284;2023-07-31T08:47:50;19.80;99.90
18998;DHT22;9632;51.018;4.284;2023-07-31T08:50:20;19.90;99.90
18998;DHT22;9632;51.018;4.284;2023-07-31T08:52:47;20.00;99.90
18998;DHT22;9632;51.018;4.284;2023-07-31T08:55:13;20.00;99.90
18998;DHT22;9632;51.018;4.284;2023-07-31T08:57:39;20.00;99.90
18998;DHT22;9632;51.018;4.284;2023-07-31T09:00:06;19.90;99.90
18998;DHT22;9632;51.018;4.284;2023-07-31T09:02:52;20.00;99.90
18998;DHT22;9632;51.018;4.284;2023-07-31T09:05:20;20.10;99.90
18998;DHT22;9632;51.018;4.284;2023-07-31T09:07:47;20.10;99.90
18998;DHT22;9632;51.018;4.284;2023-07-31T09:10:15;20.20;99.90
18998;DHT22;9632;51.018;4.284;2023-07-31T09:12:40;20.30;99.90
18998;DHT22;9632;51.018;4.284;2023-07-31T09:15:07;20.40;99.90
18998;DHT22;9632;51.018;4.284;2023-07-31T09:17:35;20.50;99.90
18998;DHT22;9632;51.018;4.284;2023-07-31T09:20:19;20.50;99.90
18998;DHT22;9632;51.018;4.284;2023-07-31T09:22:45;20.60;99.90
18998;DHT22;9632;51.018;4.284;2023-07-31T09:28:02;20.40;99.90
18998;DHT22;9632;51.018;4.284;2023-07-31T09:30:28;20.40;99.90
18998;DHT22;9632;51.018;4.284;2023-07-31T09:33:04;20.30;99.90
18998;DHT22;9632;51.018;4.284;2023-07-31T09:35:35;20.30;99.90
18998;DHT22;9632;51.018;4.284;2023-07-31T09:38:05;20.30;99.90
18998;DHT22;9632;51.018;4.284;2023-07-31T09:40:36;20.20;99.90
18998;DHT22;9632;51.018;4.284;2023-07-31T09:43:03;20.20;99.90
18998;DHT22;9632;51.018;4.284;2023-07-31T09:45:33;20.20;99.90
18998;DHT22;9632;51.018;4.284;2023-07-31T09:47:59;20.20;99.90
18998;DHT22;9632;51.018;4.284;2023-07-31T09:50:24;20.20;99.90
18998;DHT22;9632;51.018;4.284;2023-07-31T09:52:51;20.20;99.90
18998;DHT22;9632;51.018;4.284;2023-07-31T09:55:18;20.20;99.90
18998;DHT22;9632;51.018;4.284;2023-07-31T09:57:47;20.20;99.90
18998;DHT22;9632;51.018;4.284;2023-07-31T10:00:18;20.20;99.90
18998;DHT22;9632;51.018;4.284;2023-07-31T10:02:46;20.30;99.90
18998;DHT22;9632;51.018;4.284;2023-07-31T10:05:14;20.30;99.90
18998;DHT22;9632;51.018;4.284;2023-07-31T10:07:53;20.20;99.90
18998;DHT22;9632;51.018;4.284;2023-07-31T10:10:21;20.20;99.90
18998;DHT22;9632;51.018;4.284;2023-07-31T10:12:48;20.30;99.90
18998;DHT22;9632;51.018;4.284;2023-07-31T10:15:15;20.30;99.90
18998;DHT22;9632;51.018;4.284;2023-07-31T10:17:41;20.30;99.90
18998;DHT22;9632;51.018;4.284;2023-07-31T10:20:07;20.20;99.90
18998;DHT22;9632;51.018;4.284;2023-07-31T10:22:34;20.20;99.90
18998;DHT22;9632;51.018;4.284;2023-07-31T10:25:00;20.30;99.90
18998;DHT22;9632;51.018;4.284;2023-07-31T10:27:27;20.30;99.90
18998;DHT22;9632;51.018;4.284;2023-07-31T10:29:55;20.40;99.90
18998;DHT22;9632;51.018;4.284;2023-07-31T10:32:22;20.40;99.90
18998;DHT22;9632;51.018;4.284;2023-07-31T10:34:52;20.40;99.90
18998;DHT22;9632;51.018;4.284;2023-07-31T10:40:03;20.40;99.90
18998;DHT22;9632;51.018;4.284;2023-07-31T10:42:31;20.50;99.90
18998;DHT22;9632;51.018;4.284;2023-07-31T10:44:58;20.30;99.90
18998;DHT22;9632;51.018;4.284;2023-07-31T10:47:25;20.30;99.90
18998;DHT22;9632;51.018;4.284;2023-07-31T10:49:50;20.40;99.90
18998;DHT22;9632;51.018;4.284;2023-07-31T10:52:20;20.40;99.90
18998;DHT22;9632;51.018;4.284;2023-07-31T10:57:54;20.50;99.90
18998;DHT22;9632;51.018;4.284;2023-07-31T11:00:27;20.50;99.90
18998;DHT22;9632;51.018;4.284;2023-07-31T11:03:02;20.60;99.90
18998;DHT22;9632;51.018;4.284;2023-07-31T11:08:23;20.70;99.90
18998;DHT22;9632;51.018;4.284;2023-07-31T11:10:51;20.80;99.90
18998;DHT22;9632;51.018;4.284;2023-07-31T11:15:59;20.80;99.90
18998;DHT22;9632;51.018;4.284;2023-07-31T11:18:28;20.80;99.90
18998;DHT22;9632;51.018;4.284;2023-07-31T11:20:54;20.80;99.90
18998;DHT22;9632;51.018;4.284;2023-07-31T11:23:21;20.80;99.90
18998;DHT22;9632;51.018;4.284;2023-07-31T11:25:47;20.80;99.90
18998;DHT22;9632;51.018;4.284;2023-07-31T11:28:14;20.80;99.90
18998;DHT22;9632;51.018;4.284;2023-07-31T11:30:41;20.80;99.90
18998;DHT22;9632;51.018;4.284;2023-07-31T11:33:08;20.80;99.90
18998;DHT22;9632;51.018;4.284;2023-07-31T11:35:40;20.90;99.90
18998;DHT22;9632;51.018;4.284;2023-07-31T11:38:07;21.00;99.90
18998;DHT22;9632;51.018;4.284;2023-07-31T11:40:44;21.20;99.90
18998;DHT22;9632;51.018;4.284;2023-07-31T11:43:10;21.10;99.90
18998;DHT22;9632;51.018;4.284;2023-07-31T11:45:37;21.10;99.90
18998;DHT22;9632;51.018;4.284;2023-07-31T11:48:03;21.10;99.90
18998;DHT22;9632;51.018;4.284;2023-07-31T11:50:33;21.20;99.90
18998;DHT22;9632;51.018;4.284;2023-07-31T11:53:03;21.20;99.90
18998;DHT22;9632;51.018;4.284;2023-07-31T11:55:30;21.10;99.90
18998;DHT22;9632;51.018;4.284;2023-07-31T11:57:57;21.10;99.90
18998;DHT22;9632;51.018;4.284;2023-07-31T12:00:24;21.10;99.90
18998;DHT22;9632;51.018;4.284;2023-07-31T12:02:51;21.10;99.90
18998;DHT22;9632;51.018;4.284;2023-07-31T12:05:17;21.10;99.90
18998;DHT22;9632;51.018;4.284;2023-07-31T12:07:53;21.10;99.90
18998;DHT22;9632;51.018;4.284;2023-07-31T12:10:30;21.10;99.90
18998;DHT22;9632;51.018;4.284;2023-07-31T12:15:41;21.30;99.90
18998;DHT22;9632;51.018;4.284;2023-07-31T12:18:14;21.40;99.90
18998;DHT22;9632;51.018;4.284;2023-07-31T12:20:41;21.40;99.90
18998;DHT22;9632;51.018;4.284;2023-07-31T12:23:22;21.50;99.90
18998;DHT22;9632;51.018;4.284;2023-07-31T12:26:20;21.50;99.90
18998;DHT22;9632;51.018;4.284;2023-07-31T12:28:47;21.50;99.90
18998;DHT22;9632;51.018;4.284;2023-07-31T12:31:22;21.50;99.90
18998;DHT22;9632;51.018;4.284;2023-07-31T12:33:50;21.60;99.90
18998;DHT22;9632;51.018;4.284;2023-07-31T12:36:18;21.70;99.90
18998;DHT22;9632;51.018;4.284;2023-07-31T12:38:45;21.60;99.90
18998;DHT22;9632;51.018;4.284;2023-07-31T12:41:12;21.60;99.90
18998;DHT22;9632;51.018;4.284;2023-07-31T12:43:39;21.60;99.90
18998;DHT22;9632;51.018;4.284;2023-07-31T12:46:06;21.70;99.90
18998;DHT22;9632;51.018;4.284;2023-07-31T12:48:33;21.80;99.90
18998;DHT22;9632;51.018;4.284;2023-07-31T12:50:59;21.80;99.90
18998;DHT22;9632;51.018;4.284;2023-07-31T12:53:25;21.80;99.90
18998;DHT22;9632;51.018;4.284;2023-07-31T12:55:51;21.70;99.90
18998;DHT22;9632;51.018;4.284;2023-07-31T12:58:16;21.70;99.90
18998;DHT22;9632;51.018;4.284;2023-07-31T13:00:42;21.60;99.90
18998;DHT22;9632;51.018;4.284;2023-07-31T13:03:08;21.50;99.90
18998;DHT22;9632;51.018;4.284;2023-07-31T13:05:34;21.60;99.90
18998;DHT22;9632;51.018;4.284;2023-07-31T13:08:00;21.60;99.90
18998;DHT22;9632;51.018;4.284;2023-07-31T13:10:27;21.60;99.90
18998;DHT22;9632;51.018;4.284;2023-07-31T13:12:54;21.60;99.90
18998;DHT22;9632;51.018;4.284;2023-07-31T13:15:19;21.50;99.90
18998;DHT22;9632;51.018;4.284;2023-07-31T13:17:46;21.40;99.90
18998;DHT22;9632;51.018;4.284;2023-07-31T13:20:12;21.30;99.90
18998;DHT22;9632;51.018;4.284;2023-07-31T13:22:37;21.10;99.90
18998;DHT22;9632;51.018;4.284;2023-07-31T13:25:03;21.10;99.90
18998;DHT22;9632;51.018;4.284;2023-07-31T13:27:29;21.00;99.90
18998;DHT22;9632;51.018;4.284;2023-07-31T13:29:55;21.00;99.90
18998;DHT22;9632;51.018;4.284;2023-07-31T13:32:21;20.90;99.90
18998;DHT22;9632;51.018;4.284;2023-07-31T13:34:47;20.80;99.90
18998;DHT22;9632;51.018;4.284;2023-07-31T13:37:13;20.80;99.90
18998;DHT22;9632;51.018;4.284;2023-07-31T13:39:39;20.70;99.90
18998;DHT22;9632;51.018;4.284;2023-07-31T13:42:06;20.60;99.90
18998;DHT22;9632;51.018;4.284;2023-07-31T13:44:34;20.60;99.90
18998;DHT22;9632;51.018;4.284;2023-07-31T13:47:03;20.60;99.90
18998;DHT22;9632;51.018;4.284;2023-07-31T13:49:30;20.60;99.90
18998;DHT22;9632;51.018;4.284;2023-07-31T13:51:56;20.60;99.90
18998;DHT22;9632;51.018;4.284;2023-07-31T13:54:22;20.60;99.90
18998;DHT22;9632;51.018;4.284;2023-07-31T13:56:48;20.40;99.90
18998;DHT22;9632;51.018;4.284;2023-07-31T13:59:14;20.40;99.90
18998;DHT22;9632;51.018;4.284;2023-07-31T14:01:42;20.50;99.90
18998;DHT22;9632;51.018;4.284;2023-07-31T14:04:08;20.50;99.90
18998;DHT22;9632;51.018;4.284;2023-07-31T14:06:34;20.50;99.90
18998;DHT22;9632;51.018;4.284;2023-07-31T14:08:59;20.50;99.90
18998;DHT22;9632;51.018;4.284;2023-07-31T14:11:26;20.50;99.90
18998;DHT22;9632;51.018;4.284;2023-07-31T14:13:51;20.50;99.90
18998;DHT22;9632;51.018;4.284;2023-07-31T14:16:18;20.50;99.90
18998;DHT22;9632;51.018;4.284;2023-07-31T14:18:43;20.40;99.90
18998;DHT22;9632;51.018;4.284;2023-07-31T14:21:11;20.40;99.90
18998;DHT22;9632;51.018;4.284;2023-07-31T14:23:36;20.40;99.90
18998;DHT22;9632;51.018;4.284;2023-07-31T14:26:02;20.40;99.90
18998;DHT22;9632;51.018;4.284;2023-07-31T14:28:28;20.40;99.90
18998;DHT22;9632;51.018;4.284;2023-07-31T14:30:53;20.30;99.90
18998;DHT22;9632;51.018;4.284;2023-07-31T14:33:19;20.30;99.90
18998;DHT22;9632;51.018;4.284;2023-07-31T14:35:44;20.30;99.90
18998;DHT22;9632;51.018;4.284;2023-07-31T14:38:10;20.30;99.90
18998;DHT22;9632;51.018;4.284;2023-07-31T14:40:36;20.40;99.90
18998;DHT22;9632;51.018;4.284;2023-07-31T14:43:03;20.40;99.90
18998;DHT22;9632;51.018;4.284;2023-07-31T14:45:29;20.50;99.90
18998;DHT22;9632;51.018;4.284;2023-07-31T14:47:55;20.50;99.90
18998;DHT22;9632;51.018;4.284;2023-07-31T14:50:20;20.50;99.90
18998;DHT22;9632;51.018;4.284;2023-07-31T14:52:47;20.40;99.90
18998;DHT22;9632;51.018;4.284;2023-07-31T14:55:13;20.30;99.90
18998;DHT22;9632;51.018;4.284;2023-07-31T14:57:39;20.30;99.90
18998;DHT22;9632;51.018;4.284;2023-07-31T15:00:05;20.30;99.90
18998;DHT22;9632;51.018;4.284;2023-07-31T15:02:34;20.40;99.90
18998;DHT22;9632;51.018;4.284;2023-07-31T15:05:00;20.30;99.90
18998;DHT22;9632;51.018;4.284;2023-07-31T15:07:26;20.30;99.90
18998;DHT22;9632;51.018;4.284;2023-07-31T15:09:52;20.30;99.90
18998;DHT22;9632;51.018;4.284;2023-07-31T15:12:17;20.30;99.90
18998;DHT22;9632;51.018;4.284;2023-07-31T15:14:43;20.20;99.90
18998;DHT22;9632;51.018;4.284;2023-07-31T15:17:08;20.20;99.90
18998;DHT22;9632;51.018;4.284;2023-07-31T15:19:34;20.20;99.90
18998;DHT22;9632;51.018;4.284;2023-07-31T15:22:02;20.20;99.90
18998;DHT22;9632;51.018;4.284;2023-07-31T15:24:28;20.20;99.90
18998;DHT22;9632;51.018;4.284;2023-07-31T15:26:54;20.10;99.90
18998;DHT22;9632;51.018;4.284;2023-07-31T15:29:20;20.20;99.90
18998;DHT22;9632;51.018;4.284;2023-07-31T15:31:47;20.20;99.90
18998;DHT22;9632;51.018;4.284;2023-07-31T15:34:13;20.20;99.90
18998;DHT22;9632;51.018;4.284;2023-07-31T15:36:39;20.10;99.90
18998;DHT22;9632;51.018;4.284;2023-07-31T15:39:05;20.10;99.90
18998;DHT22;9632;51.018;4.284;2023-07-31T15:41:34;20.10;99.90
18998;DHT22;9632;51.018;4.284;2023-07-31T15:44:00;20.20;99.90
18998;DHT22;9632;51.018;4.284;2023-07-31T15:46:26;20.20;99.90
18998;DHT22;9632;51.018;4.284;2023-07-31T15:48:52;20.20;99.90
18998;DHT22;9632;51.018;4.284;2023-07-31T15:51:19;20.20;99.90
18998;DHT22;9632;51.018;4.284;2023-07-31T15:53:44;20.20;99.90
18998;DHT22;9632;51.018;4.284;2023-07-31T15:56:10;20.10;99.90
18998;DHT22;9632;51.018;4.284;2023-07-31T15:58:36;20.10;99.90
18998;DHT22;9632;51.018;4.284;2023-07-31T16:01:02;20.10;99.90